createdAt,value
2018-07-23T00:01:43.997Z,18.30
2018-07-23T00:04:12.455Z,18.20
2018-07-23T00:06:40.834Z,18.20
2018-07-23T00:09:09.261Z,18.20
2018-07-23T00:11:37.777Z,18.20
2018-07-23T00:14:06.176Z,18.10
2018-07-23T00:16:34.733Z,18.10
2018-07-23T00:19:03.124Z,18.00
2018-07-23T00:21:31.557Z,17.90
2018-07-23T00:23:59.995Z,17.90
2018-07-23T00:26:28.413Z,17.90
2018-07-23T00:28:56.861Z,17.90
2018-07-23T00:31:25.304Z,17.90
2018-07-23T00:33:53.715Z,17.90
2018-07-23T00:36:22.174Z,17.80
2018-07-23T00:38:50.620Z,17.80
2018-07-23T00:41:19.085Z,17.70
2018-07-23T00:43:47.537Z,17.70
2018-07-23T00:46:16.004Z,17.60
2018-07-23T00:48:44.678Z,17.60
2018-07-23T00:51:13.068Z,17.60
2018-07-23T00:53:41.502Z,17.60
2018-07-23T00:56:10.068Z,17.50
2018-07-23T00:58:38.494Z,17.50
2018-07-23T01:01:06.933Z,17.50
2018-07-23T01:03:35.641Z,17.60
2018-07-23T01:06:04.009Z,17.60
2018-07-23T01:08:32.364Z,17.60
2018-07-23T01:11:00.778Z,17.60
2018-07-23T01:13:29.189Z,17.60
2018-07-23T01:15:57.602Z,17.50
2018-07-23T01:18:26.021Z,17.50
2018-07-23T01:20:54.440Z,17.50
2018-07-23T01:23:22.804Z,17.60
2018-07-23T01:25:51.408Z,17.60
2018-07-23T01:28:19.773Z,17.60
2018-07-23T01:30:48.172Z,17.60
2018-07-23T01:33:16.930Z,17.60
2018-07-23T01:35:45.329Z,17.60
2018-07-23T01:38:14.346Z,17.50
2018-07-23T01:40:42.729Z,17.50
2018-07-23T01:43:11.114Z,17.50
2018-07-23T01:45:39.713Z,17.50
2018-07-23T01:48:08.280Z,17.50
2018-07-23T01:50:36.752Z,17.50
2018-07-23T01:53:05.402Z,17.50
2018-07-23T01:55:33.869Z,17.50
2018-07-23T01:58:02.258Z,17.50
2018-07-23T02:00:30.739Z,17.50
2018-07-23T02:02:59.191Z,17.40
2018-07-23T02:05:27.669Z,17.40
2018-07-23T02:07:56.257Z,17.40
2018-07-23T02:10:24.664Z,17.40
2018-07-23T02:12:53.118Z,16.40
2018-07-23T02:15:21.836Z,17.40
2018-07-23T02:17:50.320Z,17.40
2018-07-23T02:20:18.761Z,17.40
2018-07-23T02:22:47.257Z,17.30
2018-07-23T02:25:15.658Z,17.30
2018-07-23T02:27:44.497Z,17.20
2018-07-23T02:30:12.913Z,17.20
2018-07-23T02:32:41.365Z,17.20
2018-07-23T02:35:09.885Z,17.10
2018-07-23T02:37:38.264Z,17.10
2018-07-23T02:40:06.940Z,17.10
2018-07-23T02:42:35.389Z,17.10
2018-07-23T02:45:03.841Z,17.10
2018-07-23T02:47:32.287Z,17.10
2018-07-23T02:52:28.833Z,17.20
2018-07-23T02:54:58.134Z,17.20
2018-07-23T02:57:26.617Z,17.30
2018-07-23T02:59:55.278Z,17.20
2018-07-23T03:02:23.733Z,17.20
2018-07-23T03:04:52.129Z,17.30
2018-07-23T03:07:20.677Z,17.30
2018-07-23T03:09:49.063Z,17.20
2018-07-23T03:12:17.478Z,17.20
2018-07-23T03:14:46.135Z,17.30
2018-07-23T03:17:14.786Z,17.30
2018-07-23T03:19:43.167Z,17.30
2018-07-23T03:22:11.602Z,17.20
2018-07-23T03:24:40.021Z,17.30
2018-07-23T03:27:08.522Z,17.20
2018-07-23T03:29:36.953Z,17.20
2018-07-23T03:32:05.505Z,17.30
2018-07-23T03:34:33.910Z,17.30
2018-07-23T03:37:02.309Z,17.30
2018-07-23T03:39:31.022Z,17.30
2018-07-23T03:41:59.397Z,17.30
2018-07-23T03:44:27.782Z,17.30
2018-07-23T03:46:56.359Z,17.40
2018-07-23T03:49:24.769Z,17.40
2018-07-23T03:51:53.153Z,17.40
2018-07-23T03:54:21.581Z,17.50
2018-07-23T03:56:49.963Z,17.50
2018-07-23T03:59:18.385Z,17.60
2018-07-23T04:01:46.781Z,17.60
2018-07-23T04:04:17.032Z,17.70
2018-07-23T04:06:47.058Z,17.90
2018-07-23T04:09:15.560Z,18.40
2018-07-23T04:11:45.473Z,18.90
2018-07-23T04:14:14.349Z,19.40
2018-07-23T04:16:42.806Z,19.80
2018-07-23T04:19:11.186Z,20.20
2018-07-23T04:21:39.801Z,20.60
2018-07-23T04:24:08.212Z,20.90
2018-07-23T04:26:36.612Z,21.20
2018-07-23T04:29:05.341Z,21.60
2018-07-23T04:31:33.789Z,21.90
2018-07-23T04:34:02.210Z,22.30
2018-07-23T04:36:30.820Z,22.50
2018-07-23T04:38:59.261Z,22.40
2018-07-23T04:41:27.680Z,22.60
2018-07-23T04:43:56.314Z,22.80
2018-07-23T04:46:24.749Z,23.20
2018-07-23T04:48:53.114Z,23.20
2018-07-23T04:51:21.509Z,23.40
2018-07-23T04:53:50.081Z,23.20
2018-07-23T04:56:18.453Z,23.00
2018-07-23T04:58:46.829Z,23.60
2018-07-23T05:01:15.305Z,23.90
2018-07-23T05:03:43.758Z,23.80
2018-07-23T05:06:12.382Z,23.80
2018-07-23T05:08:40.879Z,23.80
2018-07-23T05:11:09.246Z,23.60
2018-07-23T05:13:37.669Z,23.90
2018-07-23T05:16:06.220Z,24.20
2018-07-23T05:18:34.567Z,24.70
2018-07-23T05:21:03.031Z,25.10
2018-07-23T05:23:31.409Z,25.40
2018-07-23T05:25:59.804Z,25.60
2018-07-23T05:28:28.269Z,25.30
2018-07-23T05:30:56.903Z,25.60
2018-07-23T05:33:25.301Z,25.40
2018-07-23T05:35:53.732Z,25.50
2018-07-23T05:38:22.362Z,26.20
2018-07-23T05:40:50.749Z,27.00
2018-07-23T05:43:19.196Z,27.00
2018-07-23T05:45:47.648Z,27.70
2018-07-23T05:48:16.034Z,27.40
2018-07-23T05:50:45.382Z,27.10
2018-07-23T05:53:14.054Z,28.10
2018-07-23T05:55:42.444Z,27.70
2018-07-23T05:58:10.881Z,27.20
2018-07-23T06:00:39.430Z,27.10
2018-07-23T06:03:07.824Z,27.10
2018-07-23T06:05:36.305Z,27.30
2018-07-23T06:08:04.906Z,27.80
2018-07-23T06:10:33.336Z,28.30
2018-07-23T06:13:01.831Z,27.60
2018-07-23T06:15:30.282Z,27.70
2018-07-23T06:17:58.770Z,28.10
2018-07-23T06:20:27.182Z,27.50
2018-07-23T06:22:55.593Z,27.00
2018-07-23T06:25:24.041Z,26.60
2018-07-23T06:27:53.081Z,26.90
2018-07-23T06:30:21.552Z,27.90
2018-07-23T06:32:49.949Z,28.50
2018-07-23T06:35:18.489Z,29.60
2018-07-23T06:37:46.913Z,30.30
2018-07-23T06:40:15.637Z,29.60
2018-07-23T06:42:44.221Z,29.60
2018-07-23T06:45:12.657Z,30.80
2018-07-23T06:47:41.112Z,31.10
2018-07-23T06:50:09.565Z,31.50
2018-07-23T06:52:37.994Z,31.70
2018-07-23T06:55:06.767Z,31.90
2018-07-23T06:57:35.133Z,31.40
2018-07-23T07:00:03.695Z,29.80
2018-07-23T07:02:32.153Z,29.70
2018-07-23T07:05:01.596Z,29.60
2018-07-23T07:07:30.283Z,29.20
2018-07-23T07:12:33.821Z,28.30
2018-07-23T07:15:02.194Z,27.70
2018-07-23T07:17:30.604Z,27.60
2018-07-23T07:19:59.304Z,26.80
2018-07-23T07:22:27.669Z,26.60
2018-07-23T07:24:56.082Z,26.70
2018-07-23T07:27:24.819Z,26.90
2018-07-23T07:29:53.192Z,27.10
2018-07-23T07:32:21.577Z,27.10
2018-07-23T07:34:50.024Z,27.10
2018-07-23T07:37:18.384Z,27.10
2018-07-23T07:39:46.949Z,27.20
2018-07-23T07:42:15.765Z,27.30
2018-07-23T07:44:44.140Z,27.20
2018-07-23T07:47:12.741Z,27.20
2018-07-23T07:49:41.117Z,27.20
2018-07-23T07:52:09.497Z,27.20
2018-07-23T07:54:37.937Z,26.60
2018-07-23T07:57:06.374Z,26.40
2018-07-23T07:59:34.957Z,26.40
2018-07-23T08:02:03.337Z,26.50
2018-07-23T08:04:31.684Z,26.60
2018-07-23T08:07:00.245Z,26.40
2018-07-23T08:09:28.610Z,26.50
2018-07-23T08:14:25.357Z,26.00
2018-07-23T08:16:53.787Z,25.70
2018-07-23T08:19:22.166Z,25.70
2018-07-23T08:21:50.637Z,25.90
2018-07-23T08:24:19.089Z,26.20
2018-07-23T08:26:47.501Z,26.30
2018-07-23T08:29:16.085Z,26.50
2018-07-23T08:31:44.495Z,26.70
2018-07-23T08:34:12.904Z,26.50
2018-07-23T08:36:41.342Z,26.50
2018-07-23T08:39:10.949Z,26.30
2018-07-23T08:41:39.569Z,26.00
2018-07-23T08:44:08.780Z,26.20
2018-07-23T08:46:37.216Z,26.50
2018-07-23T08:49:05.740Z,26.60
2018-07-23T08:51:34.394Z,26.60
2018-07-23T08:54:02.877Z,27.00
2018-07-23T08:56:31.322Z,27.20
2018-07-23T08:58:59.926Z,27.20
2018-07-23T09:01:28.308Z,27.30
2018-07-23T09:03:56.729Z,27.50
2018-07-23T09:06:25.387Z,27.70
2018-07-23T09:08:53.774Z,27.90
2018-07-23T09:11:22.187Z,28.20
2018-07-23T09:13:50.628Z,28.30
2018-07-23T09:16:20.041Z,28.30
2018-07-23T09:18:48.437Z,28.50
2018-07-23T09:21:16.804Z,28.20
2018-07-23T09:23:46.440Z,28.20
2018-07-23T09:26:14.789Z,27.90
2018-07-23T09:28:43.181Z,27.80
2018-07-23T09:31:11.782Z,27.40
2018-07-23T09:33:40.153Z,27.40
2018-07-23T09:36:08.537Z,27.40
2018-07-23T09:38:37.014Z,27.60
2018-07-23T09:41:05.541Z,28.00
2018-07-23T09:43:33.949Z,28.40
2018-07-23T09:46:02.397Z,28.70
2018-07-23T09:48:30.957Z,29.10
2018-07-23T09:50:59.393Z,29.10
2018-07-23T09:53:27.798Z,29.00
2018-07-23T09:55:56.460Z,29.10
2018-07-23T09:58:24.837Z,29.30
2018-07-23T10:00:57.981Z,29.10
2018-07-23T10:03:26.609Z,28.70
2018-07-23T10:05:54.980Z,28.50
2018-07-23T10:08:23.532Z,28.50
2018-07-23T10:10:51.963Z,28.30
2018-07-23T10:13:20.403Z,28.30
2018-07-23T10:15:48.833Z,28.20
2018-07-23T10:20:46.289Z,27.70
2018-07-23T10:23:14.718Z,27.70
2018-07-23T10:25:43.357Z,28.00
2018-07-23T10:28:11.760Z,28.00
2018-07-23T10:30:40.113Z,28.40
2018-07-23T10:33:08.528Z,28.60
2018-07-23T10:35:36.918Z,28.90
2018-07-23T10:38:05.446Z,29.00
2018-07-23T10:40:34.089Z,28.60
2018-07-23T10:43:02.433Z,28.70
2018-07-23T10:45:30.794Z,29.00
2018-07-23T10:47:59.384Z,28.80
2018-07-23T10:50:27.761Z,28.50
2018-07-23T10:52:56.143Z,28.80
2018-07-23T10:55:24.560Z,28.70
2018-07-23T10:57:52.961Z,28.50
2018-07-23T11:00:21.481Z,28.60
2018-07-23T11:02:49.904Z,28.70
2018-07-23T11:05:18.335Z,29.10
2018-07-23T11:07:46.925Z,29.10
2018-07-23T11:10:15.305Z,28.90
2018-07-23T11:12:43.699Z,28.70
2018-07-23T11:15:12.406Z,28.90
2018-07-23T11:17:40.806Z,29.10
2018-07-23T11:20:11.327Z,29.40
2018-07-23T11:22:40.703Z,29.70
2018-07-23T11:25:38.701Z,29.80
2018-07-23T11:27:37.618Z,29.90
2018-07-23T11:30:06.349Z,29.70
2018-07-23T11:32:35.492Z,29.70
2018-07-23T11:35:03.909Z,29.50
2018-07-23T11:37:32.837Z,29.80
2018-07-23T11:40:01.227Z,29.90
2018-07-23T11:42:29.725Z,30.00
2018-07-23T11:44:58.326Z,30.20
2018-07-23T11:47:26.706Z,29.90
2018-07-23T11:49:55.111Z,29.80
2018-07-23T11:52:23.633Z,29.70
2018-07-23T11:54:52.034Z,29.80
2018-07-23T11:57:20.421Z,29.90
2018-07-23T11:59:48.973Z,29.80
2018-07-23T12:02:17.407Z,29.70
2018-07-23T12:04:46.592Z,29.40
2018-07-23T12:07:15.105Z,29.30
2018-07-23T12:09:43.933Z,29.20
2018-07-23T12:12:12.343Z,29.10
2018-07-23T12:14:41.066Z,29.20
2018-07-23T12:17:09.529Z,29.30
2018-07-23T12:19:37.895Z,29.30
2018-07-23T12:24:34.481Z,29.30
2018-07-23T12:27:02.949Z,29.50
2018-07-23T12:29:31.298Z,29.40
2018-07-23T12:31:59.696Z,29.40
2018-07-23T12:34:28.122Z,29.30
2018-07-23T12:36:56.553Z,29.10
2018-07-23T12:39:25.163Z,29.10
2018-07-23T12:41:53.526Z,29.00
2018-07-23T12:44:22.020Z,29.10
2018-07-23T12:46:50.658Z,29.30
2018-07-23T12:49:19.053Z,29.40
2018-07-23T12:51:48.421Z,29.60
2018-07-23T12:54:17.333Z,29.60
2018-07-23T12:56:45.910Z,29.60
2018-07-23T13:01:42.633Z,29.20
2018-07-23T13:04:11.029Z,29.20
2018-07-23T13:06:39.430Z,29.20
2018-07-23T13:09:10.338Z,29.10
2018-07-23T13:11:38.973Z,29.20
2018-07-23T13:14:07.406Z,29.10
2018-07-23T13:16:36.149Z,28.90
2018-07-23T13:19:04.960Z,29.00
2018-07-23T13:21:33.509Z,29.20
2018-07-23T13:24:02.209Z,29.30
2018-07-23T13:26:30.589Z,29.20
2018-07-23T13:28:59.020Z,29.20
2018-07-23T13:31:27.417Z,29.20
2018-07-23T13:33:55.814Z,29.30
2018-07-23T13:36:24.419Z,29.30
2018-07-23T13:38:52.830Z,29.30
2018-07-23T13:41:21.221Z,29.20
2018-07-23T13:43:49.654Z,29.00
2018-07-23T13:46:18.262Z,29.00
2018-07-23T13:48:47.524Z,29.00
2018-07-23T13:51:15.942Z,29.00
2018-07-23T13:53:44.538Z,29.20
2018-07-23T13:56:12.897Z,29.20
2018-07-23T13:58:41.276Z,29.40
2018-07-23T14:01:09.884Z,29.60
2018-07-23T14:03:38.256Z,29.50
2018-07-23T14:06:06.691Z,29.50
2018-07-23T14:08:35.247Z,29.30
2018-07-23T14:11:03.629Z,29.00
2018-07-23T14:13:31.987Z,28.80
2018-07-23T14:16:00.712Z,28.80
2018-07-23T14:18:29.103Z,28.90
2018-07-23T14:20:57.495Z,28.90
2018-07-23T14:23:26.049Z,29.00
2018-07-23T14:25:54.412Z,29.10
2018-07-23T14:28:22.829Z,29.30
2018-07-23T14:30:51.464Z,29.40
2018-07-23T14:33:19.861Z,29.50
2018-07-23T14:35:48.229Z,29.40
2018-07-23T14:38:16.786Z,29.50
2018-07-23T14:40:45.145Z,29.60
2018-07-23T14:43:13.600Z,29.50
2018-07-23T14:45:42.175Z,29.60
2018-07-23T14:48:11.441Z,29.70
2018-07-23T14:50:39.847Z,29.70
2018-07-23T14:53:08.513Z,29.80
2018-07-23T14:55:36.904Z,29.70
2018-07-23T14:58:05.284Z,29.70
2018-07-23T15:00:33.888Z,29.60
2018-07-23T15:03:02.269Z,29.60
2018-07-23T15:05:30.679Z,29.60
2018-07-23T15:07:59.087Z,29.60
2018-07-23T15:10:27.481Z,29.50
2018-07-23T15:12:55.910Z,29.40
2018-07-23T15:17:52.385Z,29.30
2018-07-23T15:20:20.847Z,29.30
2018-07-23T15:22:49.237Z,29.30
2018-07-23T15:25:18.245Z,29.20
2018-07-23T15:27:46.655Z,29.10
2018-07-23T15:30:15.293Z,29.10
2018-07-23T15:32:43.667Z,29.00
2018-07-23T15:35:12.065Z,29.00
2018-07-23T15:37:40.601Z,28.90
2018-07-23T15:40:09.010Z,28.80
2018-07-23T15:42:37.977Z,28.70
2018-07-23T15:45:06.501Z,28.80
2018-07-23T15:47:35.046Z,28.80
2018-07-23T15:50:03.445Z,28.70
2018-07-23T15:52:31.825Z,28.70
2018-07-23T15:55:00.429Z,28.60
2018-07-23T15:57:28.832Z,28.60
2018-07-23T15:59:57.233Z,28.50
2018-07-23T16:02:25.912Z,28.50
2018-07-23T16:04:54.296Z,28.50
2018-07-23T16:07:22.653Z,28.40
2018-07-23T16:12:19.344Z,28.10
2018-07-23T16:14:48.540Z,28.10
2018-07-23T16:17:17.090Z,28.10
2018-07-23T16:19:45.468Z,28.20
2018-07-23T16:22:13.832Z,28.20
2018-07-23T16:24:42.444Z,28.20
2018-07-23T16:27:10.816Z,28.20
2018-07-23T16:29:39.179Z,28.20
2018-07-23T16:32:07.876Z,28.10
2018-07-23T16:34:36.236Z,28.00
2018-07-23T16:37:04.634Z,28.00
2018-07-23T16:39:33.016Z,27.90
2018-07-23T16:42:01.439Z,27.90
2018-07-23T16:44:29.868Z,27.90
2018-07-23T16:46:58.258Z,27.90
2018-07-23T16:49:26.680Z,27.80
2018-07-23T16:51:55.172Z,27.70
2018-07-23T16:54:23.601Z,27.80
2018-07-23T16:56:52.025Z,27.80
2018-07-23T16:59:20.644Z,27.80
2018-07-23T17:01:48.984Z,27.80
2018-07-23T17:06:46.494Z,27.90
2018-07-23T17:09:14.916Z,27.80
2018-07-23T17:11:43.295Z,27.70
2018-07-23T17:14:11.675Z,27.70
2018-07-23T17:16:40.078Z,27.70
2018-07-23T17:19:08.421Z,27.70
2018-07-23T17:21:36.952Z,27.70
2018-07-23T17:24:05.357Z,27.60
2018-07-23T17:26:33.698Z,27.50
2018-07-23T17:29:02.332Z,27.40
2018-07-23T17:31:30.717Z,27.30
2018-07-23T17:33:59.120Z,27.30
2018-07-23T17:36:27.520Z,27.30
2018-07-23T17:38:55.949Z,27.20
2018-07-23T17:41:24.344Z,27.20
2018-07-23T17:43:52.893Z,27.10
2018-07-23T17:46:21.301Z,26.90
2018-07-23T17:48:49.932Z,27.10
2018-07-23T17:51:18.592Z,27.10
2018-07-23T17:53:46.968Z,27.00
2018-07-23T17:56:15.333Z,27.00
2018-07-23T17:58:43.940Z,27.00
2018-07-23T18:01:12.617Z,26.90
2018-07-23T18:03:40.980Z,26.90
2018-07-23T18:06:09.548Z,26.80
2018-07-23T18:08:37.913Z,26.80
2018-07-23T18:11:06.266Z,26.70
2018-07-23T18:13:34.843Z,26.70
2018-07-23T18:16:03.228Z,26.60
2018-07-23T18:18:31.625Z,26.50
2018-07-23T18:21:00.321Z,26.50
2018-07-23T18:23:28.716Z,26.40
2018-07-23T18:25:57.086Z,26.30
2018-07-23T18:28:25.513Z,26.30
2018-07-23T18:30:53.881Z,26.20
2018-07-23T18:33:22.319Z,26.10
2018-07-23T18:35:50.700Z,26.10
2018-07-23T18:38:20.063Z,26.00
2018-07-23T18:40:48.440Z,25.90
2018-07-23T18:43:16.788Z,25.90
2018-07-23T18:45:45.183Z,25.80
2018-07-23T18:48:25.785Z,25.80
2018-07-23T18:50:54.224Z,25.70
2018-07-23T18:53:23.009Z,25.70
2018-07-23T18:55:51.535Z,25.60
2018-07-23T18:58:20.204Z,25.50
2018-07-23T19:00:48.564Z,25.50
2018-07-23T19:03:17.130Z,25.40
2018-07-23T19:05:45.506Z,25.40
2018-07-23T19:08:13.885Z,25.40
2018-07-23T19:10:42.428Z,25.30
2018-07-23T19:13:10.804Z,25.30
2018-07-23T19:15:39.136Z,25.20
2018-07-23T19:18:07.724Z,25.20
2018-07-23T19:20:36.139Z,25.20
2018-07-23T19:23:04.444Z,25.10
2018-07-23T19:25:32.997Z,25.10
2018-07-23T19:28:01.429Z,25.00
2018-07-23T19:30:29.800Z,25.00
2018-07-23T19:32:58.171Z,24.90
2018-07-23T19:35:26.584Z,24.90
2018-07-23T19:37:54.968Z,24.80
2018-07-23T19:40:23.340Z,24.70
2018-07-23T19:42:51.920Z,24.70
2018-07-23T19:45:20.361Z,24.60
2018-07-23T19:47:48.862Z,24.60
2018-07-23T19:50:17.144Z,24.60
2018-07-23T19:52:45.693Z,24.50
2018-07-23T19:55:14.073Z,24.50
2018-07-23T19:57:42.506Z,24.50
2018-07-23T20:00:10.838Z,25.50
2018-07-23T20:02:39.228Z,24.40
2018-07-23T20:05:07.673Z,24.30
2018-07-23T20:07:36.013Z,24.30
2018-07-23T20:10:04.813Z,24.20
2018-07-23T20:12:33.185Z,24.10
2018-07-23T20:15:01.589Z,24.10
2018-07-23T20:17:29.948Z,24.00
2018-07-23T20:19:58.328Z,24.00
2018-07-23T20:22:26.705Z,24.00
2018-07-23T20:24:55.260Z,23.90
2018-07-23T20:27:23.620Z,23.90
2018-07-23T20:29:51.981Z,23.80
2018-07-23T20:32:20.536Z,23.80
2018-07-23T20:34:49.598Z,23.80
2018-07-23T20:37:18.008Z,23.70
2018-07-23T20:39:46.556Z,23.70
2018-07-23T20:42:14.920Z,23.70
2018-07-23T20:44:43.275Z,23.70
2018-07-23T20:47:11.656Z,23.60
2018-07-23T20:49:40.008Z,23.60
2018-07-23T20:52:08.540Z,23.60
2018-07-23T20:54:36.880Z,23.60
2018-07-23T20:57:05.316Z,23.50
2018-07-23T20:59:33.904Z,23.50
2018-07-23T21:02:02.315Z,23.40
2018-07-23T21:04:30.720Z,23.40
2018-07-23T21:06:59.297Z,23.40
2018-07-23T21:09:27.708Z,23.30
2018-07-23T21:11:56.064Z,23.30
2018-07-23T21:14:24.464Z,23.30
2018-07-23T21:16:52.837Z,23.20
2018-07-23T21:19:21.191Z,23.20
2018-07-23T21:21:49.592Z,23.10
2018-07-23T21:24:18.021Z,23.10
2018-07-23T21:26:46.553Z,23.00
2018-07-23T21:29:14.932Z,22.90
2018-07-23T21:31:43.347Z,22.90
2018-07-23T21:34:11.893Z,22.80
2018-07-23T21:36:40.284Z,22.80
2018-07-23T21:39:09.435Z,22.70
2018-07-23T21:41:38.151Z,22.70
2018-07-23T21:44:06.540Z,22.70
2018-07-23T21:46:34.924Z,22.60
2018-07-23T21:51:31.671Z,22.60
2018-07-23T21:54:00.089Z,22.60
2018-07-23T21:56:29.260Z,22.50
2018-07-23T21:58:57.957Z,22.50
2018-07-23T22:01:26.348Z,22.50
2018-07-23T22:03:54.900Z,22.50
2018-07-23T22:06:23.676Z,22.40
2018-07-23T22:08:53.773Z,22.40
2018-07-23T22:11:22.270Z,22.30
2018-07-23T22:13:51.640Z,22.20
2018-07-23T22:16:20.089Z,22.20
2018-07-23T22:18:48.521Z,22.20
2018-07-23T22:21:17.040Z,22.20
2018-07-23T22:23:45.468Z,22.20
2018-07-23T22:26:13.841Z,22.20
2018-07-23T22:28:42.291Z,22.10
2018-07-23T22:31:10.702Z,21.40
2018-07-23T22:33:39.092Z,22.10
2018-07-23T22:36:07.529Z,22.00
2018-07-23T22:38:36.145Z,22.00
2018-07-23T22:41:04.507Z,21.90
2018-07-23T22:43:32.925Z,21.90
2018-07-23T22:46:01.476Z,21.90
2018-07-23T22:48:29.848Z,21.90
2018-07-23T22:50:58.244Z,21.80
2018-07-23T22:53:26.678Z,21.80
2018-07-23T22:55:55.097Z,21.80
2018-07-23T22:58:23.688Z,21.80
2018-07-23T23:00:52.961Z,21.70
2018-07-23T23:03:21.309Z,21.70
2018-07-23T23:05:49.841Z,21.60
2018-07-23T23:08:18.408Z,21.60
2018-07-23T23:10:46.812Z,21.60
2018-07-23T23:13:15.192Z,21.60
2018-07-23T23:15:43.568Z,21.60
2018-07-23T23:18:11.968Z,21.60
2018-07-23T23:20:40.516Z,21.60
2018-07-23T23:23:08.908Z,21.60
2018-07-23T23:25:37.341Z,21.60
2018-07-23T23:28:06.057Z,21.50
2018-07-23T23:30:34.421Z,21.50
2018-07-23T23:33:02.852Z,21.50
2018-07-23T23:35:31.421Z,21.50
2018-07-23T23:37:59.784Z,21.50
2018-07-23T23:40:28.132Z,21.50
2018-07-23T23:42:56.519Z,21.50
2018-07-23T23:45:25.450Z,21.50
2018-07-23T23:47:53.828Z,21.50
2018-07-23T23:50:23.140Z,21.40
2018-07-23T23:52:51.720Z,21.40
2018-07-23T23:55:20.061Z,21.30
2018-07-23T23:57:48.428Z,21.40
